Time;durP1;ratioP1;P1;durP2;ratioP2;P2;SDS_P1;SDS_P2;PMS_P1;PMS_P2;Temp;Humidity;BMP_temperature;BMP_pressure;BME280_temperature;BME280_humidity;BME280_pressure;Samples;Min_cycle;Max_cycle;Signal;HPM_P1;HPM_P2
2022/12/05 00:00:05;;;;;;;56.60;17.07;;;;;;;;;;5034313;28;20025;-89
2022/12/05 00:02:30;;;;;;;50.30;17.87;;;;;;;;;;5033765;28;20068;-89
2022/12/05 00:04:56;;;;;;;54.07;18.80;;;;;;;;;;5034640;28;20025;-90
2022/12/05 00:07:21;;;;;;;55.97;19.13;;;;;;;;;;5034270;28;20028;-90
2022/12/05 00:09:46;;;;;;;52.47;18.20;;;;;;;;;;5034490;28;20021;-89
2022/12/05 00:12:11;;;;;;;57.37;18.03;;;;;;;;;;5032836;28;20029;-89
2022/12/05 00:14:36;;;;;;;53.87;19.67;;;;;;;;;;5034477;28;20477;-90
2022/12/05 00:17:02;;;;;;;62.07;18.43;;;;;;;;;;5034128;28;20026;-90
2022/12/05 00:19:27;;;;;;;53.93;18.60;;;;;;;;;;5034011;28;20422;-90
2022/12/05 00:21:52;;;;;;;46.23;16.73;;;;;;;;;;5033257;28;20021;-90
2022/12/05 00:24:18;;;;;;;53.33;18.20;;;;;;;;;;5034046;28;20028;-90
2022/12/05 00:26:44;;;;;;;56.13;19.00;;;;;;;;;;5033706;28;20104;-91
2022/12/05 00:29:09;;;;;;;51.40;17.40;;;;;;;;;;5033923;28;20116;-90
2022/12/05 00:31:34;;;;;;;52.50;19.27;;;;;;;;;;5033316;28;20033;-90
2022/12/05 00:34:00;;;;;;;48.17;18.07;;;;;;;;;;5033723;28;20033;-90
2022/12/05 00:36:26;;;;;;;49.40;17.67;;;;;;;;;;5033877;28;20032;-90
2022/12/05 00:38:52;;;;;;;62.37;19.10;;;;;;;;;;5033868;28;20487;-90
2022/12/05 00:41:18;;;;;;;56.27;18.23;;;;;;;;;;5032888;28;20061;-90
2022/12/05 00:43:44;;;;;;;54.43;19.03;;;;;;;;;;5033744;28;20017;-90
2022/12/05 00:46:11;;;;;;;51.90;17.73;;;;;;;;;;5033779;28;20017;-90
2022/12/05 00:48:36;;;;;;;52.83;19.13;;;;;;;;;;5033545;28;20041;-90
2022/12/05 00:51:06;;;;;;;50.50;18.80;;;;;;;;;;5032891;28;20120;-90
2022/12/05 00:53:31;;;;;;;56.10;17.93;;;;;;;;;;5034671;28;20044;-90
2022/12/05 00:56:00;;;;;;;57.93;18.47;;;;;;;;;;5033499;28;20021;-90
2022/12/05 00:58:26;;;;;;;58.47;18.93;;;;;;;;;;5033292;28;20116;-90
2022/12/05 01:00:51;;;;;;;58.63;19.13;;;;;;;;;;5033119;28;20045;-89
2022/12/05 01:03:16;;;;;;;48.30;17.50;;;;;;;;;;5031435;28;20048;-90
2022/12/05 01:05:41;;;;;;;63.13;19.60;;;;;;;;;;5033074;28;20108;-90
2022/12/05 01:08:06;;;;;;;51.70;18.50;;;;;;;;;;5033262;28;20453;-90
2022/12/05 01:10:31;;;;;;;59.60;19.40;;;;;;;;;;5033292;28;20032;-90
2022/12/05 01:12:57;;;;;;;55.00;18.77;;;;;;;;;;5030975;28;20029;-89
2022/12/05 01:15:23;;;;;;;62.90;18.60;;;;;;;;;;5032442;28;20025;-90
2022/12/05 01:17:48;;;;;;;50.73;18.20;;;;;;;;;;5033017;28;20087;-90
2022/12/05 01:20:13;;;;;;;57.87;17.57;;;;;;;;;;5032982;28;20160;-90
2022/12/05 01:22:38;;;;;;;56.10;17.07;;;;;;;;;;5031790;28;20025;-90
2022/12/05 01:25:04;;;;;;;44.30;16.00;;;;;;;;;;5033013;28;20036;-90
2022/12/05 01:27:29;;;;;;;56.37;18.87;;;;;;;;;;5032593;28;20072;-90
2022/12/05 01:29:54;;;;;;;57.93;18.10;;;;;;;;;;5032805;28;20029;-90
2022/12/05 01:32:20;;;;;;;52.67;16.93;;;;;;;;;;5032265;28;20052;-90
2022/12/05 01:34:45;;;;;;;56.57;18.37;;;;;;;;;;5033991;28;20014;-90
2022/12/05 01:37:10;;;;;;;51.80;17.37;;;;;;;;;;5033160;28;20443;-90
2022/12/05 01:39:35;;;;;;;52.03;18.17;;;;;;;;;;5032180;28;20643;-90
2022/12/05 01:42:03;;;;;;;56.50;18.43;;;;;;;;;;5032409;28;20025;-90
2022/12/05 01:44:28;;;;;;;52.80;17.40;;;;;;;;;;5032528;28;20017;-90
2022/12/05 01:46:54;;;;;;;56.37;18.40;;;;;;;;;;5032402;28;20171;-90
2022/12/05 01:49:22;;;;;;;53.60;19.43;;;;;;;;;;5032940;28;20426;-90
2022/12/05 01:51:48;;;;;;;60.87;18.53;;;;;;;;;;5031832;28;20457;-90
2022/12/05 01:54:15;;;;;;;53.03;18.53;;;;;;;;;;5029032;28;20025;-90
2022/12/05 01:56:43;;;;;;;55.30;17.97;;;;;;;;;;5026279;28;20024;-89
2022/12/05 01:59:10;;;;;;;54.80;18.47;;;;;;;;;;5032266;28;20051;-90
2022/12/05 02:01:35;;;;;;;54.27;18.53;;;;;;;;;;5030915;28;20029;-90
2022/12/05 02:04:00;;;;;;;56.07;18.50;;;;;;;;;;5031130;28;20108;-90
2022/12/05 02:06:26;;;;;;;50.97;18.70;;;;;;;;;;5028532;28;20021;-90
2022/12/05 02:08:52;;;;;;;50.37;17.47;;;;;;;;;;5031942;28;20021;-90
2022/12/05 02:11:18;;;;;;;54.80;20.70;;;;;;;;;;5031118;28;20017;-90
2022/12/05 02:13:53;;;;;;;51.60;19.90;;;;;;;;;;5032099;28;20358;-90
2022/12/05 02:16:38;;;;;;;62.93;20.57;;;;;;;;;;5031903;28;20041;-90
2022/12/05 02:19:25;;;;;;;59.60;19.53;;;;;;;;;;5031819;28;20026;-90
2022/12/05 02:22:09;;;;;;;53.43;18.60;;;;;;;;;;5030624;28;20477;-90
2022/12/05 02:24:43;;;;;;;56.87;18.30;;;;;;;;;;5031659;28;20032;-90
2022/12/05 02:27:08;;;;;;;55.20;19.13;;;;;;;;;;5048480;28;20025;-90
2022/12/05 02:29:46;;;;;;;52.80;18.47;;;;;;;;;;5048369;28;20025;-90
2022/12/05 02:32:29;;;;;;;57.40;19.30;;;;;;;;;;5043584;28;20025;-89
2022/12/05 02:34:57;;;;;;;61.37;20.30;;;;;;;;;;5031644;28;20484;-90
2022/12/05 02:37:25;;;;;;;56.90;18.57;;;;;;;;;;5024430;28;20508;-90
2022/12/05 02:39:54;;;;;;;55.17;19.73;;;;;;;;;;5048168;28;20057;-90
2022/12/05 02:42:28;;;;;;;66.50;21.03;;;;;;;;;;5030600;28;20060;-89
2022/12/05 02:44:56;;;;;;;54.73;18.93;;;;;;;;;;5031392;28;20028;-90
2022/12/05 02:47:24;;;;;;;58.23;19.90;;;;;;;;;;5031168;28;20017;-89
2022/12/05 02:49:50;;;;;;;58.00;19.43;;;;;;;;;;5029148;28;20060;-89
2022/12/05 02:52:16;;;;;;;59.83;20.33;;;;;;;;;;5031054;28;20080;-90
2022/12/05 02:54:43;;;;;;;60.23;21.33;;;;;;;;;;5032370;28;20113;-89
2022/12/05 02:57:10;;;;;;;59.73;20.30;;;;;;;;;;5032393;28;20504;-90
2022/12/05 02:59:35;;;;;;;63.20;20.77;;;;;;;;;;5032401;28;20087;-90
2022/12/05 03:02:01;;;;;;;58.00;18.97;;;;;;;;;;5030410;28;20509;-89
2022/12/05 03:04:27;;;;;;;61.20;18.50;;;;;;;;;;5031204;28;20036;-90
2022/12/05 03:06:52;;;;;;;68.60;20.57;;;;;;;;;;5031096;28;20080;-90
2022/12/05 03:09:34;;;;;;;59.43;19.80;;;;;;;;;;5047762;28;20429;-90
2022/12/05 03:12:10;;;;;;;65.90;21.92;;;;;;;;;;5017691;28;20191;-90
2022/12/05 03:14:40;;;;;;;59.60;20.50;;;;;;;;;;5031010;28;20025;-90
2022/12/05 03:17:09;;;;;;;69.87;21.93;;;;;;;;;;5030957;28;20445;-90
2022/12/05 03:19:52;;;;;;;63.07;21.47;;;;;;;;;;5030994;28;20018;-90
2022/12/05 03:22:22;;;;;;;62.47;21.17;;;;;;;;;;5046266;28;20022;-90
2022/12/05 03:24:48;;;;;;;53.83;18.77;;;;;;;;;;5032677;28;20381;-90
2022/12/05 03:27:28;;;;;;;61.77;20.83;;;;;;;;;;5030891;28;20025;-90
2022/12/05 03:30:05;;;;;;;54.50;18.80;;;;;;;;;;5030870;28;20029;-91
2022/12/05 03:32:49;;;;;;;55.33;20.03;;;;;;;;;;5046653;28;20021;-90
2022/12/05 03:35:15;;;;;;;51.77;19.73;;;;;;;;;;5036284;28;20042;-91
2022/12/05 03:37:46;;;;;;;59.07;20.60;;;;;;;;;;5045306;28;20095;-91
2022/12/05 03:40:12;;;;;;;49.38;18.33;;;;;;;;;;5030965;28;20053;-90
2022/12/05 03:42:39;;;;;;;52.17;19.30;;;;;;;;;;5031395;28;20036;-91
2022/12/05 03:45:14;;;;;;;47.53;17.20;;;;;;;;;;5031066;28;20013;-91
2022/12/05 03:47:55;;;;;;;59.10;20.43;;;;;;;;;;5031955;28;20064;-91
2022/12/05 03:50:25;;;;;;;53.40;17.83;;;;;;;;;;5029982;28;20496;-91
2022/12/05 03:53:10;;;;;;;54.30;18.63;;;;;;;;;;5029868;28;20029;-91
2022/12/05 03:55:37;;;;;;;47.07;17.60;;;;;;;;;;5030886;28;20017;-91
2022/12/05 03:58:15;;;;;;;61.60;19.40;;;;;;;;;;5031958;28;20018;-91
2022/12/05 04:00:43;;;;;;;54.67;17.80;;;;;;;;;;5029888;28;20608;-91
2022/12/05 04:03:09;;;;;;;51.33;18.20;;;;;;;;;;5035221;28;20025;-91
2022/12/05 04:05:34;;;;;;;51.87;18.33;;;;;;;;;;5051219;28;20032;-90
2022/12/05 04:08:04;;;;;;;55.00;18.60;;;;;;;;;;5034046;28;20380;-90
2022/12/05 04:10:31;;;;;;;54.63;18.27;;;;;;;;;;5033590;28;20084;-90
2022/12/05 04:13:16;;;;;;;47.97;16.73;;;;;;;;;;5034163;28;20033;-91
2022/12/05 04:18:28;;;;;;;55.93;17.80;;;;;;;;;;5035514;28;20032;-91
2022/12/05 04:23:37;;;;;;;51.13;18.00;;;;;;;;;;5029722;28;20024;-90
2022/12/05 04:26:15;;;;;;;53.57;18.67;;;;;;;;;;5033823;28;20456;-90
2022/12/05 04:28:48;;;;;;;51.80;17.63;;;;;;;;;;5033973;28;20021;-90
2022/12/05 04:31:16;;;;;;;48.00;17.70;;;;;;;;;;5022429;28;20045;-90
2022/12/05 04:33:49;;;;;;;46.27;17.07;;;;;;;;;;5033901;28;20079;-91
2022/12/05 04:36:18;;;;;;;52.97;17.87;;;;;;;;;;5033664;28;20026;-91
2022/12/05 04:39:01;;;;;;;51.77;18.17;;;;;;;;;;5034903;28;20028;-91
2022/12/05 04:41:37;;;;;;;50.13;16.07;;;;;;;;;;5021993;28;20087;-91
2022/12/05 04:44:05;;;;;;;51.30;16.87;;;;;;;;;;5034036;28;20018;-90
2022/12/05 04:46:32;;;;;;;42.33;16.73;;;;;;;;;;5033599;28;20028;-91
2022/12/05 04:48:59;;;;;;;46.40;15.60;;;;;;;;;;5033660;28;20535;-91
2022/12/05 04:51:26;;;;;;;43.87;18.07;;;;;;;;;;5032631;28;20450;-90
2022/12/05 04:53:55;;;;;;;53.63;18.77;;;;;;;;;;5033309;28;20076;-91
2022/12/05 04:56:21;;;;;;;50.43;17.20;;;;;;;;;;5033374;28;20018;-90
2022/12/05 04:58:46;;;;;;;44.87;17.03;;;;;;;;;;5033300;28;20029;-91
2022/12/05 05:01:14;;;;;;;45.83;16.60;;;;;;;;;;5032466;28;20442;-90
2022/12/05 05:03:45;;;;;;;45.23;16.67;;;;;;;;;;5048611;28;20029;-91
2022/12/05 05:06:11;;;;;;;45.87;17.77;;;;;;;;;;5044009;28;20028;-91
2022/12/05 05:08:36;;;;;;;51.77;17.17;;;;;;;;;;5033040;28;20021;-90
2022/12/05 05:11:04;;;;;;;50.30;17.10;;;;;;;;;;5033015;28;20056;-91
2022/12/05 05:13:29;;;;;;;45.43;17.27;;;;;;;;;;5031026;28;20402;-91
2022/12/05 05:15:54;;;;;;;49.37;17.00;;;;;;;;;;5019636;28;20079;-91
2022/12/05 05:18:20;;;;;;;48.20;17.33;;;;;;;;;;5033062;28;20079;-92
2022/12/05 05:20:45;;;;;;;46.03;17.77;;;;;;;;;;5032336;28;20044;-92
2022/12/05 05:23:10;;;;;;;51.50;18.90;;;;;;;;;;5030761;28;20033;-91
2022/12/05 05:25:35;;;;;;;48.20;16.60;;;;;;;;;;5022881;28;20097;-92
2022/12/05 05:28:01;;;;;;;55.27;18.73;;;;;;;;;;5022992;28;20080;-93
2022/12/05 05:30:26;;;;;;;49.47;18.57;;;;;;;;;;5028623;28;20018;-93
2022/12/05 05:32:51;;;;;;;49.87;18.27;;;;;;;;;;5026819;28;20375;-93
2022/12/05 05:35:16;;;;;;;48.50;17.33;;;;;;;;;;5036891;28;20021;-92
2022/12/05 05:37:42;;;;;;;57.60;18.83;;;;;;;;;;5023855;28;20025;-91
2022/12/05 05:40:09;;;;;;;52.17;18.43;;;;;;;;;;5025814;28;20442;-92
2022/12/05 05:42:34;;;;;;;55.23;17.87;;;;;;;;;;5029230;28;20022;-91
2022/12/05 05:44:59;;;;;;;61.87;21.10;;;;;;;;;;5046327;28;20442;-92
2022/12/05 05:47:24;;;;;;;58.13;18.17;;;;;;;;;;5024044;28;20017;-92
2022/12/05 05:49:49;;;;;;;55.03;18.43;;;;;;;;;;5028516;28;20025;-91
2022/12/05 05:52:15;;;;;;;50.77;17.93;;;;;;;;;;5031060;28;20092;-91
2022/12/05 05:54:40;;;;;;;52.77;19.33;;;;;;;;;;5032781;28;20044;-92
2022/12/05 05:57:05;;;;;;;61.03;19.00;;;;;;;;;;5027925;28;20042;-90
2022/12/05 05:59:31;;;;;;;58.33;18.50;;;;;;;;;;5026761;28;20385;-91
2022/12/05 06:01:56;;;;;;;56.83;20.70;;;;;;;;;;5031760;28;20056;-91
2022/12/05 06:04:21;;;;;;;56.67;19.30;;;;;;;;;;5032332;28;20029;-93
2022/12/05 06:06:46;;;;;;;57.23;20.23;;;;;;;;;;5029491;28;20041;-93
2022/12/05 06:09:11;;;;;;;60.30;20.23;;;;;;;;;;5022552;28;20021;-93
2022/12/05 06:11:37;;;;;;;60.67;19.53;;;;;;;;;;5030749;28;20116;-93
2022/12/05 06:14:02;;;;;;;59.53;20.67;;;;;;;;;;5036185;28;20035;-92
2022/12/05 06:16:28;;;;;;;61.93;19.87;;;;;;;;;;5029564;28;20025;-92
2022/12/05 06:18:54;;;;;;;58.67;20.83;;;;;;;;;;5029438;28;20508;-91
2022/12/05 06:21:20;;;;;;;57.70;20.20;;;;;;;;;;5030232;28;20026;-92
2022/12/05 06:23:45;;;;;;;51.63;18.13;;;;;;;;;;5031127;28;20033;-89
2022/12/05 06:26:11;;;;;;;54.23;18.80;;;;;;;;;;5027493;28;20013;-90
2022/12/05 06:28:38;;;;;;;61.70;21.07;;;;;;;;;;5031412;28;20021;-91
2022/12/05 06:31:14;;;;;;;58.73;20.33;;;;;;;;;;5029769;28;20120;-91
2022/12/05 06:33:39;;;;;;;56.80;18.47;;;;;;;;;;5028569;28;20036;-92
2022/12/05 06:36:06;;;;;;;57.77;19.67;;;;;;;;;;5029830;28;20022;-91
2022/12/05 06:38:31;;;;;;;58.77;20.07;;;;;;;;;;5031647;28;20031;-92
2022/12/05 06:40:57;;;;;;;57.60;18.43;;;;;;;;;;5027954;28;20037;-93
2022/12/05 06:43:22;;;;;;;54.30;18.37;;;;;;;;;;5026498;28;20121;-92
2022/12/05 06:45:47;;;;;;;58.20;19.10;;;;;;;;;;5026305;28;20154;-93
2022/12/05 06:48:12;;;;;;;54.47;19.63;;;;;;;;;;5032017;28;20065;-93
2022/12/05 06:50:37;;;;;;;57.77;19.43;;;;;;;;;;5032420;28;20025;-92
2022/12/05 06:53:03;;;;;;;51.00;18.50;;;;;;;;;;5029288;28;20025;-93
2022/12/05 06:55:28;;;;;;;50.83;19.03;;;;;;;;;;5032926;28;20374;-93
2022/12/05 06:57:53;;;;;;;51.90;19.50;;;;;;;;;;5026807;28;20027;-92
2022/12/05 07:03:02;;;;;;;51.47;18.53;;;;;;;;;;5028702;28;20160;-91
2022/12/05 07:05:28;;;;;;;51.73;17.80;;;;;;;;;;5023445;28;20050;-92
2022/12/05 07:07:53;;;;;;;55.57;19.00;;;;;;;;;;5030111;28;20028;-92
2022/12/05 07:10:18;;;;;;;56.07;19.13;;;;;;;;;;5032198;28;20452;-92
2022/12/05 07:12:43;;;;;;;53.77;19.93;;;;;;;;;;5027176;28;20080;-94
2022/12/05 07:15:09;;;;;;;52.13;19.07;;;;;;;;;;5030852;28;20025;-92
2022/12/05 07:17:35;;;;;;;56.93;21.60;;;;;;;;;;5030975;28;20411;-91
2022/12/05 07:20:01;;;;;;;51.93;18.33;;;;;;;;;;5029867;28;20021;-92
2022/12/05 07:22:26;;;;;;;48.97;17.47;;;;;;;;;;5031874;28;20029;-93
2022/12/05 07:24:54;;;;;;;49.17;17.10;;;;;;;;;;5027181;28;20083;-94
2022/12/05 07:27:19;;;;;;;53.77;19.10;;;;;;;;;;5030205;28;20013;-93
2022/12/05 07:29:44;;;;;;;38.53;16.47;;;;;;;;;;5031338;28;20063;-94
2022/12/05 07:32:09;;;;;;;49.80;16.90;;;;;;;;;;5030408;28;20021;-92
2022/12/05 07:34:35;;;;;;;49.97;18.13;;;;;;;;;;5036027;28;20029;-94
2022/12/05 07:37:00;;;;;;;52.50;18.80;;;;;;;;;;5034741;28;20348;-95
2022/12/05 07:39:25;;;;;;;46.87;17.73;;;;;;;;;;5049894;28;20032;-95
2022/12/05 07:41:50;;;;;;;54.03;19.03;;;;;;;;;;5038813;28;20026;-94
2022/12/05 07:44:16;;;;;;;54.03;19.20;;;;;;;;;;5035172;28;20064;-94
2022/12/05 07:46:41;;;;;;;50.93;19.83;;;;;;;;;;5033875;28;20063;-94
2022/12/05 07:49:06;;;;;;;46.63;17.97;;;;;;;;;;5033263;28;20032;-95
2022/12/05 07:51:32;;;;;;;49.67;18.97;;;;;;;;;;5035309;28;20079;-93
2022/12/05 07:53:58;;;;;;;57.13;21.47;;;;;;;;;;5029267;28;20037;-94
2022/12/05 07:56:23;;;;;;;56.10;19.43;;;;;;;;;;5035086;28;20028;-95
2022/12/05 07:58:49;;;;;;;52.00;18.73;;;;;;;;;;5035129;28;20038;-94
2022/12/05 08:01:21;;;;;;;46.97;18.27;;;;;;;;;;5034142;28;20017;-94
2022/12/05 08:03:47;;;;;;;49.47;18.67;;;;;;;;;;5037615;28;20025;-94
2022/12/05 08:06:13;;;;;;;51.20;18.73;;;;;;;;;;5034485;28;20009;-91
2022/12/05 08:08:39;;;;;;;45.50;18.43;;;;;;;;;;5024034;28;20026;-94
2022/12/05 08:11:06;;;;;;;48.33;17.53;;;;;;;;;;5035525;28;20095;-93
2022/12/05 08:13:31;;;;;;;50.83;17.07;;;;;;;;;;5035059;28;20021;-94
2022/12/05 08:16:01;;;;;;;51.40;17.67;;;;;;;;;;5043799;28;20421;-93
2022/12/05 08:18:26;;;;;;;49.47;18.23;;;;;;;;;;5043928;28;20089;-94
2022/12/05 08:20:51;;;;;;;53.83;17.80;;;;;;;;;;5040894;28;20098;-93
2022/12/05 08:23:17;;;;;;;45.10;17.23;;;;;;;;;;5035433;28;20482;-93
2022/12/05 08:25:42;;;;;;;43.97;17.80;;;;;;;;;;5038652;28;20029;-94
2022/12/05 08:28:07;;;;;;;53.17;19.13;;;;;;;;;;5033311;28;20029;-93
2022/12/05 08:30:32;;;;;;;46.70;18.57;;;;;;;;;;5033243;28;20107;-94
2022/12/05 08:32:58;;;;;;;50.47;20.00;;;;;;;;;;5031416;28;20457;-95
2022/12/05 08:35:23;;;;;;;43.87;16.60;;;;;;;;;;5041735;28;20024;-95
2022/12/05 08:37:48;;;;;;;48.20;17.53;;;;;;;;;;5035097;28;20041;-95
2022/12/05 08:40:13;;;;;;;45.97;17.70;;;;;;;;;;5036718;28;20026;-92
2022/12/05 08:42:38;;;;;;;47.27;17.90;;;;;;;;;;5032376;28;20036;-92
2022/12/05 08:45:04;;;;;;;40.37;16.23;;;;;;;;;;5023103;28;20041;-93
2022/12/05 08:47:29;;;;;;;43.50;16.30;;;;;;;;;;5037587;28;20089;-96
2022/12/05 08:49:54;;;;;;;43.83;17.60;;;;;;;;;;5036927;28;20045;-93
2022/12/05 08:52:21;;;;;;;44.17;16.00;;;;;;;;;;5022074;28;20013;-93
2022/12/05 08:54:46;;;;;;;35.73;16.10;;;;;;;;;;5035082;28;20041;-92
2022/12/05 08:57:12;;;;;;;41.00;15.53;;;;;;;;;;5034542;28;20022;-92
2022/12/05 08:59:37;;;;;;;42.03;16.73;;;;;;;;;;5029272;28;20029;-93
2022/12/05 09:02:02;;;;;;;42.77;16.57;;;;;;;;;;5036733;28;20044;-95
2022/12/05 09:04:27;;;;;;;38.80;14.47;;;;;;;;;;5033719;28;20022;-93
2022/12/05 09:06:53;;;;;;;37.50;16.10;;;;;;;;;;5040317;28;20101;-90
2022/12/05 09:09:18;;;;;;;41.53;15.83;;;;;;;;;;5030533;28;20035;-91
2022/12/05 09:11:49;;;;;;;47.23;16.97;;;;;;;;;;5045493;28;20112;-92
2022/12/05 09:14:15;;;;;;;41.13;16.33;;;;;;;;;;5032995;28;20022;-91
2022/12/05 09:16:42;;;;;;;37.43;15.33;;;;;;;;;;5032620;28;20037;-91
2022/12/05 09:19:12;;;;;;;40.00;15.97;;;;;;;;;;5033306;28;20567;-92
2022/12/05 09:21:37;;;;;;;41.43;16.40;;;;;;;;;;5033184;28;20025;-91
2022/12/05 09:24:02;;;;;;;40.10;16.90;;;;;;;;;;5040219;28;20020;-91
2022/12/05 09:26:28;;;;;;;44.83;17.37;;;;;;;;;;5033610;28;20017;-92
2022/12/05 09:28:54;;;;;;;37.20;16.93;;;;;;;;;;5032492;28;20021;-91
2022/12/05 09:31:21;;;;;;;47.30;18.63;;;;;;;;;;5031028;28;20095;-91
2022/12/05 09:33:47;;;;;;;46.87;18.33;;;;;;;;;;5039207;28;20048;-93
2022/12/05 09:36:14;;;;;;;44.37;17.77;;;;;;;;;;5033102;28;20652;-91
2022/12/05 09:38:39;;;;;;;42.37;17.03;;;;;;;;;;5031278;28;20199;-91
2022/12/05 09:41:04;;;;;;;40.23;16.13;;;;;;;;;;5026945;28;20125;-92
2022/12/05 09:43:30;;;;;;;42.77;16.47;;;;;;;;;;5047213;28;20436;-91
2022/12/05 09:46:08;;;;;;;39.23;16.33;;;;;;;;;;5033966;28;20021;-92
2022/12/05 09:48:33;;;;;;;37.53;15.97;;;;;;;;;;5028283;28;20037;-91
2022/12/05 09:51:00;;;;;;;41.10;16.00;;;;;;;;;;5029221;28;20037;-93
2022/12/05 09:53:32;;;;;;;32.00;14.10;;;;;;;;;;5038006;28;20025;-93
2022/12/05 09:56:00;;;;;;;41.20;16.43;;;;;;;;;;5031674;28;20055;-93
2022/12/05 09:58:38;;;;;;;42.43;16.93;;;;;;;;;;5032862;28;20453;-94
2022/12/05 10:01:21;;;;;;;38.23;16.00;;;;;;;;;;5032899;28;20466;-95
2022/12/05 10:03:57;;;;;;;43.00;16.53;;;;;;;;;;5029940;28;20148;-91
2022/12/05 10:06:25;;;;;;;44.60;16.67;;;;;;;;;;5027283;28;20626;-92
2022/12/05 10:09:09;;;;;;;38.37;16.47;;;;;;;;;;5031984;28;20037;-93
2022/12/05 10:11:46;;;;;;;42.23;16.10;;;;;;;;;;5029133;28;20508;-90
2022/12/05 10:14:20;;;;;;;36.73;15.50;;;;;;;;;;5031612;28;20018;-89
2022/12/05 10:16:51;;;;;;;38.40;16.63;;;;;;;;;;5031383;28;20059;-90
2022/12/05 10:19:36;;;;;;;33.07;15.30;;;;;;;;;;5027090;28;20028;-87
2022/12/05 10:22:03;;;;;;;39.23;17.30;;;;;;;;;;5020227;28;20045;-89
2022/12/05 10:24:30;;;;;;;38.93;17.00;;;;;;;;;;5038852;28;20036;-87
2022/12/05 10:26:58;;;;;;;39.70;17.07;;;;;;;;;;5025579;28;20507;-90
2022/12/05 10:29:50;;;;;;;35.00;15.43;;;;;;;;;;5030713;28;20461;-89
2022/12/05 10:32:17;;;;;;;35.27;15.13;;;;;;;;;;5045234;28;20065;-88
2022/12/05 10:34:44;;;;;;;34.47;14.33;;;;;;;;;;5040647;28;20033;-90
2022/12/05 10:37:14;;;;;;;42.37;16.00;;;;;;;;;;5021275;28;20018;-89
2022/12/05 10:39:39;;;;;;;36.57;16.07;;;;;;;;;;5028065;28;20033;-91
2022/12/05 10:42:05;;;;;;;36.17;15.30;;;;;;;;;;5031268;28;20036;-91
2022/12/05 10:44:31;;;;;;;33.00;14.80;;;;;;;;;;5031650;28;20021;-88
2022/12/05 10:46:56;;;;;;;37.27;15.93;;;;;;;;;;5031634;28;20464;-90
2022/12/05 10:49:22;;;;;;;36.00;15.10;;;;;;;;;;5037341;28;20021;-90
2022/12/05 10:51:48;;;;;;;32.90;14.10;;;;;;;;;;5032071;28;20076;-91
2022/12/05 10:54:18;;;;;;;34.53;14.70;;;;;;;;;;5040249;28;20115;-91
2022/12/05 10:56:48;;;;;;;33.20;15.77;;;;;;;;;;5028043;28;20021;-90
2022/12/05 10:59:15;;;;;;;31.20;14.73;;;;;;;;;;5030822;28;20048;-90
2022/12/05 11:01:49;;;;;;;32.83;14.83;;;;;;;;;;5025969;28;20088;-92
2022/12/05 11:04:26;;;;;;;28.47;13.77;;;;;;;;;;5031123;28;20045;-91
2022/12/05 11:06:52;;;;;;;31.17;14.17;;;;;;;;;;5028900;28;20022;-91
2022/12/05 11:09:19;;;;;;;31.43;14.00;;;;;;;;;;5031837;28;20022;-89
2022/12/05 11:11:56;;;;;;;33.57;13.40;;;;;;;;;;5027609;28;20021;-90
2022/12/05 11:14:22;;;;;;;27.10;12.67;;;;;;;;;;5036237;28;20116;-91
2022/12/05 11:16:52;;;;;;;24.60;12.00;;;;;;;;;;5035384;28;20029;-90
2022/12/05 11:19:21;;;;;;;24.93;11.07;;;;;;;;;;5031719;28;20022;-91
2022/12/05 11:21:47;;;;;;;24.30;11.90;;;;;;;;;;5035064;28;20116;-90
2022/12/05 11:24:24;;;;;;;26.57;11.90;;;;;;;;;;5043969;28;20546;-91
2022/12/05 11:26:50;;;;;;;24.03;11.83;;;;;;;;;;5035224;28;20444;-91
2022/12/05 11:29:35;;;;;;;28.67;13.03;;;;;;;;;;5035459;28;20017;-91
2022/12/05 11:32:01;;;;;;;29.77;13.20;;;;;;;;;;5035390;28;20029;-90
2022/12/05 11:34:30;;;;;;;26.53;12.00;;;;;;;;;;5044847;28;20029;-90
2022/12/05 11:36:57;;;;;;;25.40;10.97;;;;;;;;;;5027878;28;20052;-90
2022/12/05 11:39:23;;;;;;;24.20;11.13;;;;;;;;;;5030845;28;20392;-91
2022/12/05 11:42:10;;;;;;;19.33;9.87;;;;;;;;;;5041782;28;20029;-91
2022/12/05 11:44:35;;;;;;;23.67;11.17;;;;;;;;;;5035336;28;20025;-91
2022/12/05 11:47:18;;;;;;;22.47;10.40;;;;;;;;;;5035115;28;20392;-91
2022/12/05 11:49:49;;;;;;;21.33;10.13;;;;;;;;;;5031946;28;20350;-91
2022/12/05 11:52:14;;;;;;;25.43;11.07;;;;;;;;;;5052172;28;20155;-91
2022/12/05 11:55:15;;;;;;;21.77;10.67;;;;;;;;;;5034960;28;20009;-91
2022/12/05 11:57:46;;;;;;;21.33;10.07;;;;;;;;;;5037297;28;20028;-91
2022/12/05 12:00:11;;;;;;;25.53;10.20;;;;;;;;;;5047894;28;20096;-91
2022/12/05 12:02:49;;;;;;;24.43;10.87;;;;;;;;;;5034955;28;20415;-91
2022/12/05 12:05:26;;;;;;;24.60;11.93;;;;;;;;;;5021860;28;20021;-91
2022/12/05 12:08:02;;;;;;;23.53;11.73;;;;;;;;;;5031492;28;20030;-91
2022/12/05 12:10:34;;;;;;;67.67;21.73;;;;;;;;;;5034392;28;20028;-92
2022/12/05 12:13:10;;;;;;;29.77;15.17;;;;;;;;;;5051371;28;20427;-91
2022/12/05 12:15:38;;;;;;;25.33;12.53;;;;;;;;;;5037273;28;20064;-92
2022/12/05 12:18:11;;;;;;;26.83;12.70;;;;;;;;;;5035887;28;20087;-90
2022/12/05 12:20:36;;;;;;;21.70;11.10;;;;;;;;;;5044589;28;20025;-91
2022/12/05 12:23:01;;;;;;;21.40;11.30;;;;;;;;;;5034038;28;20032;-90
2022/12/05 12:25:29;;;;;;;20.60;9.80;;;;;;;;;;5032253;28;20017;-91
2022/12/05 12:28:10;;;;;;;16.30;8.20;;;;;;;;;;5035132;28;20477;-91
2022/12/05 12:30:36;;;;;;;16.70;7.97;;;;;;;;;;5035945;28;20032;-91
2022/12/05 12:33:06;;;;;;;14.97;8.10;;;;;;;;;;5036653;28;20028;-91
2022/12/05 12:35:44;;;;;;;15.20;8.20;;;;;;;;;;5045465;28;20025;-90
2022/12/05 12:38:18;;;;;;;22.93;10.33;;;;;;;;;;5030854;28;20389;-91
2022/12/05 12:40:48;;;;;;;18.57;9.70;;;;;;;;;;5037110;28;20099;-90
2022/12/05 12:43:14;;;;;;;17.27;8.87;;;;;;;;;;5033893;28;20021;-91
2022/12/05 12:45:39;;;;;;;20.13;8.40;;;;;;;;;;5035620;28;20420;-90
2022/12/05 12:48:04;;;;;;;17.17;8.33;;;;;;;;;;5032279;28;20029;-92
2022/12/05 12:50:29;;;;;;;17.53;8.83;;;;;;;;;;5030746;28;20474;-91
2022/12/05 12:52:54;;;;;;;18.37;8.30;;;;;;;;;;5048950;28;20342;-91
2022/12/05 12:55:22;;;;;;;18.10;8.67;;;;;;;;;;5037469;28;20075;-91
2022/12/05 12:57:47;;;;;;;21.83;9.57;;;;;;;;;;5033888;28;20037;-91
2022/12/05 13:00:18;;;;;;;18.43;8.40;;;;;;;;;;5033720;28;20147;-92
2022/12/05 13:02:46;;;;;;;18.98;9.05;;;;;;;;;;5041813;28;20113;-92
2022/12/05 13:05:23;;;;;;;15.30;7.90;;;;;;;;;;5025968;28;20025;-90
2022/12/05 13:08:07;;;;;;;19.10;9.77;;;;;;;;;;5033911;28;20029;-91
2022/12/05 13:10:36;;;;;;;18.97;9.43;;;;;;;;;;5051349;28;20113;-90
2022/12/05 13:13:02;;;;;;;19.03;9.20;;;;;;;;;;5034507;28;20026;-89
2022/12/05 13:15:46;;;;;;;23.10;9.57;;;;;;;;;;5033459;28;20060;-90
2022/12/05 13:18:14;;;;;;;16.17;8.77;;;;;;;;;;5033661;28;20033;-90
2022/12/05 13:20:40;;;;;;;20.17;9.63;;;;;;;;;;5044994;28;20028;-90
2022/12/05 13:23:06;;;;;;;20.43;9.30;;;;;;;;;;5035579;28;20457;-93
2022/12/05 13:25:33;;;;;;;19.33;8.63;;;;;;;;;;5038727;28;20469;-89
2022/12/05 13:28:03;;;;;;;19.63;8.93;;;;;;;;;;5049789;28;20013;-90
2022/12/05 13:30:29;;;;;;;20.73;10.20;;;;;;;;;;5034383;28;20028;-92
2022/12/05 13:33:06;;;;;;;20.27;9.77;;;;;;;;;;5033835;28;20017;-90
2022/12/05 13:44:00;;;;;;;22.60;9.57;;;;;;;;;;5025197;28;20539;-89
2022/12/05 13:46:25;;;;;;;20.53;9.43;;;;;;;;;;5032686;28;20025;-90
2022/12/05 13:48:58;;;;;;;18.90;8.87;;;;;;;;;;5031083;28;20018;-91
2022/12/05 13:51:35;;;;;;;18.77;9.47;;;;;;;;;;5039650;28;20013;-89
2022/12/05 13:54:12;;;;;;;18.23;9.07;;;;;;;;;;5055868;28;20032;-90
2022/12/05 13:56:50;;;;;;;19.97;9.77;;;;;;;;;;5032981;28;20029;-90
2022/12/05 13:59:34;;;;;;;19.57;9.33;;;;;;;;;;5032839;28;20029;-90
2022/12/05 14:01:59;;;;;;;21.60;9.93;;;;;;;;;;5029276;28;20041;-91
2022/12/05 14:04:45;;;;;;;21.33;9.90;;;;;;;;;;5032466;28;20025;-91
2022/12/05 14:07:10;;;;;;;17.60;8.90;;;;;;;;;;5043823;28;20041;-89
2022/12/05 14:09:55;;;;;;;19.67;9.80;;;;;;;;;;5033634;28;20468;-89
2022/12/05 14:12:21;;;;;;;19.00;9.40;;;;;;;;;;5031381;28;20077;-89
2022/12/05 14:15:02;;;;;;;17.83;9.73;;;;;;;;;;5048840;28;20392;-90
2022/12/05 14:17:29;;;;;;;18.63;8.68;;;;;;;;;;5035973;28;20048;-91
2022/12/05 14:19:57;;;;;;;19.80;9.73;;;;;;;;;;5032235;28;20052;-88
2022/12/05 14:22:39;;;;;;;18.77;9.60;;;;;;;;;;5037163;28;20041;-91
2022/12/05 14:25:04;;;;;;;18.57;9.83;;;;;;;;;;5056385;28;20048;-90
2022/12/05 14:27:53;;;;;;;20.07;9.73;;;;;;;;;;5048820;28;20025;-90
2022/12/05 14:30:20;;;;;;;18.70;9.63;;;;;;;;;;5033654;28;20457;-91
2022/12/05 14:32:46;;;;;;;18.93;9.23;;;;;;;;;;5031294;28;20071;-89
2022/12/05 14:35:16;;;;;;;20.80;9.53;;;;;;;;;;5037674;28;20022;-90
2022/12/05 14:37:41;;;;;;;18.10;9.57;;;;;;;;;;5038565;28;20017;-89
2022/12/05 14:40:19;;;;;;;22.90;10.23;;;;;;;;;;5045571;28;20022;-91
2022/12/05 14:42:53;;;;;;;18.67;8.90;;;;;;;;;;5031853;28;20036;-90